Dalton Municipal Airport


Codes: KDNN/DNN
Name: Dalton Municipal Airport
City: Dalton
Country: United States
Elevation: 709 ft.
Wikipedia:

Photos at Dalton Municipal Airport


   Photos courtesy of SpottingLog. You can add your own sightings and photos by signing up for a free trial today.



No photos found.

Weather at Dalton Municipal Airport


Time (UTC)DescriptionTempratureWindCloud coverageVisibilityPressureHumidity
26-Jun-2024 00:00Clear Sky33°C2 mph, NE0%10000m1013hPa42%
26-Jun-2024 03:00Clear Sky30°C2 mph, NE1%10000m1013hPa46%
26-Jun-2024 06:00Clear Sky26°C2 mph, NE2%10000m1013hPa54%
26-Jun-2024 09:00Clear Sky21°C2 mph, NE1%10000m1013hPa63%
26-Jun-2024 12:00Clear Sky23°C2 mph, NE3%10000m1013hPa67%
26-Jun-2024 15:00Scattered Clouds30°C4 mph, S29%10000m1012hPa44%
26-Jun-2024 18:00Scattered Clouds35°C4 mph, SW48%10000m1010hPa27%
26-Jun-2024 21:00Broken Clouds36°C4 mph, SW69%10000m1007hPa23%
27-Jun-2024 00:00Scattered Clouds30°C4 mph, W37%10000m1007hPa50%
27-Jun-2024 03:00Light Rain24°C9 mph, NW69%10000m1009hPa82%
27-Jun-2024 06:00Light Rain23°C4 mph, N84%10000m1009hPa89%
27-Jun-2024 09:00Overcast Clouds21°C4 mph, NW98%10000m1009hPa96%
27-Jun-2024 12:00Overcast Clouds23°C2 mph, W95%10000m1010hPa90%
27-Jun-2024 15:00Clear Sky29°C4 mph, N6%10000m1010hPa63%
27-Jun-2024 18:00Clear Sky33°C4 mph, N6%10000m1009hPa46%
27-Jun-2024 21:00Broken Clouds31°C7 mph, NW63%10000m1008hPa54%
28-Jun-2024 00:00Broken Clouds29°C7 mph, N59%10000m1009hPa66%
28-Jun-2024 03:00Overcast Clouds26°C2 mph, N93%10000m1010hPa70%
28-Jun-2024 06:00Overcast Clouds26°C0 mph, SE100%10000m1010hPa71%
28-Jun-2024 09:00Overcast Clouds24°C2 mph, S100%10000m1011hPa78%
28-Jun-2024 12:00Overcast Clouds24°C2 mph, S99%10000m1013hPa80%
28-Jun-2024 15:00Overcast Clouds30°C7 mph, SE87%10000m1013hPa56%
28-Jun-2024 18:00Broken Clouds35°C7 mph, S60%10000m1012hPa40%
28-Jun-2024 21:00Overcast Clouds29°C4 mph, SE100%10000m1012hPa64%
29-Jun-2024 00:00Overcast Clouds28°C4 mph, SE92%10000m1013hPa70%
29-Jun-2024 03:00Overcast Clouds25°C4 mph, SE96%10000m1014hPa75%
29-Jun-2024 06:00Overcast Clouds24°C4 mph, SE99%10000m1015hPa80%
29-Jun-2024 09:00Overcast Clouds23°C4 mph, S100%10000m1016hPa84%
29-Jun-2024 12:00Overcast Clouds25°C4 mph, SE100%10000m1017hPa83%
29-Jun-2024 15:00Light Rain31°C7 mph, S100%10000m1018hPa58%
29-Jun-2024 18:00Light Rain34°C7 mph, W100%10000m1017hPa44%
29-Jun-2024 21:00Overcast Clouds36°C4 mph, SW100%10000m1015hPa39%
30-Jun-2024 00:00Overcast Clouds30°C7 mph, NW100%10000m1016hPa64%
30-Jun-2024 03:00Overcast Clouds27°C2 mph, N99%10000m1017hPa75%
30-Jun-2024 06:00Light Rain26°C2 mph, NW100%10000m1018hPa79%
30-Jun-2024 09:00Light Rain23°C4 mph, NW100%10000m1018hPa96%
30-Jun-2024 12:00Light Rain24°C4 mph, N100%10000m1019hPa96%
30-Jun-2024 15:00Overcast Clouds26°C7 mph, N100%10000m1019hPa82%
30-Jun-2024 18:00Overcast Clouds26°C4 mph, N99%10000m1019hPa81%
30-Jun-2024 21:00Broken Clouds33°C7 mph, N62%10000m1016hPa50%